Terminal Aerodrome Forecast
Issued by NWS

Current Version | Previous Version | Text Only | Print | Product List | Glossary Off
Versions: 1 2 3 4 5 6 7 8 9 10 11 12 13 14 15 16 17 18

141
FTUS41 KILN 241737 AAB
TAFLUK
TAF AMD
KLUK 241737Z 2418/2518 27010KT P6SM SCT045
     FM242300 29004KT P6SM FEW250
     FM251600 26008KT P6SM SCT045=

USA.gov is the U.S. government's official web portal to all federal, state and local government web resources and services.